Time;durP1;ratioP1;P1;durP2;ratioP2;P2;SDS_P1;SDS_P2;PMS_P1;PMS_P2;Temp;Humidity;BMP_temperature;BMP_pressure;BME280_temperature;BME280_humidity;BME280_pressure;Samples;Min_cycle;Max_cycle;Signal;HPM_P1;HPM_P2
2023/01/24 00:00:29;;;;;;;27.80;15.50;;;1.80;99.90;;;;;;5050050;28;20196;-75
2023/01/24 00:02:55;;;;;;;27.53;15.67;;;1.80;99.90;;;;;;5048613;28;20193;-76
2023/01/24 00:05:20;;;;;;;27.17;15.97;;;1.80;99.90;;;;;;5049634;28;20213;-77
2023/01/24 00:07:46;;;;;;;27.73;15.63;;;1.70;99.90;;;;;;5033309;28;20212;-76
2023/01/24 00:10:12;;;;;;;29.07;15.60;;;1.70;99.90;;;;;;5049922;28;20185;-76
2023/01/24 00:12:38;;;;;;;29.10;16.67;;;1.70;99.90;;;;;;5049549;28;20216;-77
2023/01/24 00:15:04;;;;;;;28.67;15.90;;;1.80;99.90;;;;;;5050880;28;20177;-76
2023/01/24 00:17:30;;;;;;;30.35;16.98;;;1.70;99.90;;;;;;5049087;28;20185;-76
2023/01/24 00:19:55;;;;;;;24.53;15.53;;;1.70;99.90;;;;;;5053474;28;20244;-77
2023/01/24 00:22:21;;;;;;;33.43;15.97;;;1.70;99.90;;;;;;5054796;28;21036;-76
2023/01/24 00:24:48;;;;;;;30.07;15.17;;;1.70;99.90;;;;;;5053090;28;20219;-76
2023/01/24 00:27:14;;;;;;;26.85;16.27;;;1.70;99.90;;;;;;5054159;28;20182;-76
2023/01/24 00:29:40;;;;;;;28.83;16.33;;;1.70;99.90;;;;;;5052975;28;20191;-75
2023/01/24 00:32:06;;;;;;;31.00;16.23;;;1.70;99.90;;;;;;5052567;28;20220;-77
2023/01/24 00:34:31;;;;;;;28.60;16.60;;;1.70;99.90;;;;;;5052518;28;20184;-76
2023/01/24 00:36:57;;;;;;;30.63;16.00;;;1.70;99.90;;;;;;5051259;28;20687;-76
2023/01/24 00:39:22;;;;;;;29.67;16.30;;;1.70;99.90;;;;;;5053164;28;20186;-77
2023/01/24 00:41:48;;;;;;;32.47;17.03;;;1.70;99.90;;;;;;5052888;28;20632;-76
2023/01/24 00:44:14;;;;;;;28.97;16.17;;;1.70;99.90;;;;;;5051983;28;20192;-77
2023/01/24 00:46:40;;;;;;;27.93;15.83;;;1.70;99.90;;;;;;5053136;28;20197;-76
2023/01/24 00:49:06;;;;;;;26.08;16.75;;;1.60;99.90;;;;;;5051528;28;20677;-76
2023/01/24 00:51:32;;;;;;;27.00;15.40;;;1.80;99.90;;;;;;5051889;28;20208;-77
2023/01/24 00:53:57;;;;;;;25.90;14.23;;;1.80;99.90;;;;;;5052516;28;20196;-77
2023/01/24 00:56:23;;;;;;;26.77;14.50;;;1.80;99.90;;;;;;5049817;28;20195;-76
2023/01/24 00:58:48;;;;;;;23.73;14.20;;;1.80;99.90;;;;;;5049982;28;20189;-76
2023/01/24 01:01:14;;;;;;;25.90;15.43;;;1.80;99.90;;;;;;5050183;28;20219;-77
2023/01/24 01:03:39;;;;;;;24.37;14.47;;;1.80;99.90;;;;;;5031957;28;20594;-77
2023/01/24 01:06:09;;;;;;;22.27;14.43;;;1.80;99.90;;;;;;5050875;28;20257;-77
2023/01/24 01:08:34;;;;;;;28.13;14.93;;;1.80;99.90;;;;;;5032798;28;20188;-77
2023/01/24 01:11:00;;;;;;;27.50;16.10;;;1.80;99.90;;;;;;5051049;28;20619;-77
2023/01/24 01:13:27;;;;;;;25.70;15.23;;;1.70;99.90;;;;;;5051151;28;20277;-77
2023/01/24 01:16:03;;;;;;;21.80;14.10;;;1.70;99.90;;;;;;5049166;28;20426;-76
2023/01/24 01:18:29;;;;;;;23.73;14.90;;;1.70;99.90;;;;;;5051079;28;20258;-77
2023/01/24 01:20:54;;;;;;;22.13;14.00;;;1.70;99.90;;;;;;5049525;28;20772;-77
2023/01/24 01:23:20;;;;;;;24.27;14.00;;;1.70;99.90;;;;;;5049182;28;20193;-77
2023/01/24 01:25:46;;;;;;;23.50;13.10;;;1.70;99.90;;;;;;5050079;28;20203;-76
2023/01/24 01:28:11;;;;;;;22.77;13.50;;;1.70;99.90;;;;;;5049624;28;20202;-77
2023/01/24 01:30:37;;;;;;;24.57;15.47;;;1.70;99.90;;;;;;5048551;28;20234;-77
2023/01/24 01:33:03;;;;;;;24.77;14.57;;;1.70;99.90;;;;;;5048926;28;20238;-77
2023/01/24 01:35:28;;;;;;;24.20;14.67;;;1.70;99.90;;;;;;5048473;28;20191;-77
2023/01/24 01:37:54;;;;;;;20.60;13.67;;;1.70;99.90;;;;;;5049047;28;20177;-76
2023/01/24 01:40:19;;;;;;;25.83;14.00;;;1.70;99.90;;;;;;5048228;28;20206;-75
2023/01/24 01:42:51;;;;;;;20.27;12.63;;;1.70;99.90;;;;;;5049853;28;20260;-77
2023/01/24 01:45:37;;;;;;;25.52;14.75;;;1.70;99.90;;;;;;5048227;28;20184;-78
2023/01/24 01:48:24;;;;;;;31.90;15.85;;;1.70;99.90;;;;;;5031561;28;20201;-78
2023/01/24 01:51:00;;;;;;;25.17;14.73;;;1.70;99.90;;;;;;5049546;28;20709;-77
2023/01/24 01:53:31;;;;;;;23.23;14.35;;;1.70;99.90;;;;;;5049448;28;20207;-76
2023/01/24 01:56:05;;;;;;;22.67;13.35;;;1.70;99.90;;;;;;5050208;28;20825;-76
2023/01/24 01:58:31;;;;;;;27.55;15.68;;;1.70;99.90;;;;;;5050295;28;20729;-76
2023/01/24 02:00:57;;;;;;;28.38;15.40;;;1.70;99.90;;;;;;5012113;28;1066079;-76
2023/01/24 02:03:42;;;;;;;28.47;13.80;;;1.70;99.90;;;;;;5049887;28;20271;-76
2023/01/24 02:06:18;;;;;;;24.65;14.82;;;1.70;99.90;;;;;;5051288;28;20180;-77
2023/01/24 02:08:44;;;;;;;26.67;15.40;;;1.70;99.90;;;;;;5049983;28;20282;-76
2023/01/24 02:16:02;;;;;;;23.40;14.68;;;1.70;99.90;;;;;;5050659;28;20557;-78
2023/01/24 02:16:41;;;;;;;22.55;13.70;;;1.70;99.90;;;;;;5050289;28;20188;-77
2023/01/24 02:19:15;;;;;;;32.53;14.80;;;1.70;99.90;;;;;;5049658;28;20202;-76
2023/01/24 02:21:42;;;;;;;25.10;14.50;;;1.70;99.90;;;;;;5049950;28;20210;-78
2023/01/24 02:24:21;;;;;;;25.45;16.35;;;1.70;99.90;;;;;;5050273;28;20541;-78
2023/01/24 02:26:46;;;;;;;27.73;16.10;;;1.60;99.90;;;;;;5053110;28;20679;-77
2023/01/24 02:29:14;;;;;;;22.93;14.37;;;1.60;99.90;;;;;;5051390;28;20192;-78
2023/01/24 02:31:56;;;;;;;29.60;15.13;;;1.60;99.90;;;;;;5052492;28;20195;-77
2023/01/24 02:34:23;;;;;;;30.55;15.43;;;1.60;99.90;;;;;;5051843;28;20192;-78
2023/01/24 02:36:56;;;;;;;28.08;15.68;;;1.60;99.90;;;;;;5051995;28;20214;-77
2023/01/24 02:39:29;;;;;;;26.05;14.65;;;1.60;99.90;;;;;;5051486;28;20657;-78
2023/01/24 02:42:00;;;;;;;27.17;14.50;;;1.70;99.90;;;;;;5049111;28;20207;-77
2023/01/24 02:44:46;;;;;;;27.52;15.77;;;1.70;99.90;;;;;;5051875;28;20183;-78
2023/01/24 02:47:12;;;;;;;24.40;14.07;;;1.60;99.90;;;;;;5051206;28;20187;-78
2023/01/24 02:49:37;;;;;;;31.20;14.60;;;1.60;99.90;;;;;;5051858;28;20637;-77
2023/01/24 02:54:47;;;;;;;24.08;13.93;;;1.70;99.90;;;;;;5052581;28;20324;-78
2023/01/24 02:59:56;;;;;;;31.65;15.27;;;1.60;99.90;;;;;;5050607;28;20211;-77
2023/01/24 03:02:22;;;;;;;25.60;15.00;;;1.60;99.90;;;;;;5050054;28;20700;-79
2023/01/24 03:04:47;;;;;;;25.83;14.77;;;1.60;99.90;;;;;;5035074;28;20188;-79
2023/01/24 03:07:13;;;;;;;33.00;15.93;;;1.60;99.90;;;;;;5051354;28;20186;-78
2023/01/24 03:09:45;;;;;;;27.63;14.83;;;1.60;99.90;;;;;;5053289;28;20645;-78
2023/01/24 03:34:29;;;;;;;28.40;14.63;;;1.60;99.90;;;;;;5049409;28;20231;-77
2023/01/24 03:36:55;;;;;;;25.52;15.45;;;1.50;99.90;;;;;;5050333;28;20184;-77
2023/01/24 03:42:04;;;;;;;29.30;14.20;;;1.50;99.90;;;;;;5050189;28;20495;-77
2023/01/24 03:44:30;;;;;;;25.80;14.67;;;1.60;99.90;;;;;;5048952;28;20188;-76
2023/01/24 03:46:55;;;;;;;28.80;15.00;;;1.50;99.90;;;;;;5032796;28;20266;-77
2023/01/24 03:54:49;;;;;;;24.05;14.13;;;1.60;99.90;;;;;;5052570;28;20195;-76
2023/01/24 03:57:15;;;;;;;28.50;14.10;;;1.60;99.90;;;;;;5053631;28;20184;-76
2023/01/24 03:59:40;;;;;;;31.57;15.27;;;1.60;99.90;;;;;;5052109;28;20548;-77
2023/01/24 04:02:06;;;;;;;27.60;14.87;;;1.60;99.90;;;;;;5051658;28;20220;-77
2023/01/24 04:07:15;;;;;;;27.48;15.65;;;1.50;99.90;;;;;;5053588;28;20202;-76
2023/01/24 04:09:41;;;;;;;26.13;14.97;;;1.60;99.90;;;;;;5035561;28;20194;-76
2023/01/24 04:12:06;;;;;;;29.40;13.90;;;1.60;99.90;;;;;;5053089;28;20208;-77
2023/01/24 04:14:32;;;;;;;26.80;15.13;;;1.60;99.90;;;;;;5051530;28;20188;-78
2023/01/24 04:16:58;;;;;;;28.80;15.70;;;1.50;99.90;;;;;;5051294;28;20195;-78
2023/01/24 04:19:23;;;;;;;27.80;14.90;;;1.50;99.90;;;;;;5051446;28;20171;-77
2023/01/24 04:21:49;;;;;;;27.03;14.50;;;1.50;99.90;;;;;;5052421;28;20284;-76
2023/01/24 04:24:14;;;;;;;28.03;13.93;;;1.60;99.90;;;;;;5052063;28;20193;-77
2023/01/24 04:26:40;;;;;;;27.90;15.90;;;1.50;99.90;;;;;;5036114;28;20184;-77
2023/01/24 04:29:05;;;;;;;25.93;15.67;;;1.50;99.90;;;;;;5052859;28;20203;-78
2023/01/24 04:31:31;;;;;;;27.83;16.30;;;1.50;99.90;;;;;;5036536;28;20297;-77
2023/01/24 04:33:57;;;;;;;33.60;16.07;;;1.50;99.90;;;;;;5052919;28;20226;-77
2023/01/24 04:36:22;;;;;;;29.13;15.20;;;1.60;99.90;;;;;;5052867;28;20207;-77
2023/01/24 04:38:48;;;;;;;29.00;16.10;;;1.50;99.90;;;;;;5052485;28;20204;-77
2023/01/24 04:41:14;;;;;;;27.10;15.90;;;1.60;99.90;;;;;;5052971;28;20567;-77
2023/01/24 04:43:40;;;;;;;32.50;16.53;;;1.60;99.90;;;;;;5052344;28;20211;-77
2023/01/24 04:46:06;;;;;;;27.50;15.43;;;1.50;99.90;;;;;;5053496;28;20662;-77
2023/01/24 04:48:32;;;;;;;32.05;16.67;;;1.50;99.90;;;;;;5053001;28;20200;-77
2023/01/24 04:50:59;;;;;;;40.93;17.60;;;1.60;99.90;;;;;;5051163;28;20213;-77
2023/01/24 04:53:25;;;;;;;36.53;18.10;;;1.50;99.90;;;;;;5052576;28;20663;-77
2023/01/24 04:55:50;;;;;;;30.37;18.03;;;1.50;99.90;;;;;;5051326;28;20192;-77
2023/01/24 04:58:16;;;;;;;29.30;16.50;;;1.60;99.90;;;;;;5052535;28;20415;-77
2023/01/24 05:00:41;;;;;;;32.03;17.63;;;1.60;99.90;;;;;;5052510;28;20575;-78
2023/01/24 05:03:07;;;;;;;30.90;15.60;;;1.60;99.90;;;;;;5034604;28;20199;-77
2023/01/24 05:05:33;;;;;;;35.60;16.90;;;1.60;99.90;;;;;;5050377;28;20192;-77
2023/01/24 05:07:58;;;;;;;30.37;15.67;;;1.60;99.90;;;;;;5050638;28;20188;-77
2023/01/24 05:10:24;;;;;;;38.07;16.93;;;1.60;99.90;;;;;;5052256;28;20206;-78
2023/01/24 05:12:50;;;;;;;35.97;17.83;;;1.60;99.90;;;;;;5033735;28;20227;-77
2023/01/24 05:15:17;;;;;;;35.53;16.70;;;1.60;99.90;;;;;;5050082;28;20226;-76
2023/01/24 05:17:43;;;;;;;35.42;17.33;;;1.60;99.90;;;;;;5051193;28;20212;-77
2023/01/24 05:20:10;;;;;;;37.55;18.42;;;1.60;99.90;;;;;;5049642;28;20212;-77
2023/01/24 05:22:35;;;;;;;35.80;17.38;;;1.50;99.90;;;;;;5051489;28;20208;-78
2023/01/24 05:25:01;;;;;;;31.40;17.13;;;1.50;99.90;;;;;;5033669;28;20188;-78
2023/01/24 05:27:27;;;;;;;35.30;17.20;;;1.50;99.90;;;;;;5050362;28;20693;-78
2023/01/24 05:29:52;;;;;;;41.93;19.90;;;1.50;99.90;;;;;;5050128;28;20683;-77
2023/01/24 05:32:18;;;;;;;41.30;17.33;;;1.50;99.90;;;;;;5051895;28;20208;-78
2023/01/24 05:34:43;;;;;;;44.93;17.80;;;1.60;99.90;;;;;;5050707;28;20176;-77
2023/01/24 05:37:09;;;;;;;36.53;17.20;;;1.60;99.90;;;;;;5053673;28;20191;-77
2023/01/24 05:39:34;;;;;;;37.30;19.83;;;1.50;99.90;;;;;;5051567;28;20182;-77
2023/01/24 05:42:00;;;;;;;36.00;18.20;;;1.50;99.90;;;;;;5051790;28;20208;-77
2023/01/24 05:44:26;;;;;;;31.70;17.23;;;1.50;99.90;;;;;;5049944;28;20204;-78
2023/01/24 05:46:51;;;;;;;32.17;17.40;;;1.50;99.90;;;;;;5033624;28;20188;-76
2023/01/24 05:49:17;;;;;;;35.20;18.30;;;1.50;99.90;;;;;;5050807;28;20670;-76
2023/01/24 05:51:42;;;;;;;35.00;17.83;;;1.50;99.90;;;;;;5048945;28;20244;-76
2023/01/24 05:54:08;;;;;;;35.60;18.90;;;1.50;99.90;;;;;;5050481;28;20185;-77
2023/01/24 05:56:33;;;;;;;33.80;17.87;;;1.50;99.90;;;;;;5050202;28;20177;-77
2023/01/24 05:59:01;;;;;;;33.97;18.17;;;1.50;99.90;;;;;;5032122;28;20198;-77
2023/01/24 06:01:27;;;;;;;35.85;18.35;;;1.50;99.90;;;;;;5050056;28;20204;-76
2023/01/24 06:03:53;;;;;;;37.97;19.20;;;1.50;99.90;;;;;;5047669;28;20193;-76
2023/01/24 06:06:21;;;;;;;35.75;18.92;;;1.50;99.90;;;;;;5048748;28;20430;-76
2023/01/24 06:08:47;;;;;;;38.10;18.02;;;1.50;99.90;;;;;;5049043;28;20219;-77
2023/01/24 06:11:21;;;;;;;35.50;17.05;;;1.60;99.90;;;;;;5048609;28;20215;-76
2023/01/24 06:13:47;;;;;;;34.08;17.27;;;1.60;99.90;;;;;;5046830;28;20219;-77
2023/01/24 06:16:15;;;;;;;32.33;17.98;;;1.60;99.90;;;;;;5047208;28;20207;-76
2023/01/24 06:18:41;;;;;;;36.08;17.50;;;1.60;99.90;;;;;;5048670;28;20966;-76
2023/01/24 06:21:24;;;;;;;41.80;18.80;;;1.60;99.90;;;;;;5048564;28;20204;-77
2023/01/24 06:23:50;;;;;;;34.67;18.60;;;1.60;99.90;;;;;;5048537;28;20418;-76
2023/01/24 06:26:16;;;;;;;34.90;18.40;;;1.60;99.90;;;;;;5048630;28;20500;-76
2023/01/24 06:28:42;;;;;;;36.93;17.73;;;1.70;99.90;;;;;;5048338;28;20430;-77
2023/01/24 06:31:31;;;;;;;42.63;18.40;;;1.70;99.90;;;;;;5048420;28;20449;-77
2023/01/24 06:34:15;;;;;;;41.08;18.85;;;1.60;99.90;;;;;;5048246;28;20211;-76
2023/01/24 06:36:41;;;;;;;33.20;18.83;;;1.50;99.90;;;;;;5048253;28;20338;-76
2023/01/24 06:39:14;;;;;;;41.07;20.47;;;1.50;99.90;;;;;;5048302;28;20799;-76
2023/01/24 06:41:39;;;;;;;34.25;18.52;;;1.60;99.90;;;;;;5048342;28;20200;-76
2023/01/24 06:44:07;;;;;;;41.50;19.13;;;1.50;99.90;;;;;;5047006;28;20207;-76
2023/01/24 06:46:32;;;;;;;41.13;18.90;;;1.50;99.90;;;;;;5046931;28;20182;-76
2023/01/24 06:48:58;;;;;;;42.63;20.53;;;1.50;99.90;;;;;;5030216;28;20196;-75
2023/01/24 06:51:24;;;;;;;34.97;18.57;;;1.50;99.90;;;;;;5048700;28;20204;-76
2023/01/24 06:53:49;;;;;;;37.10;18.70;;;1.50;99.90;;;;;;5030212;28;20247;-76
2023/01/24 06:56:15;;;;;;;36.07;18.90;;;1.50;99.90;;;;;;5048498;28;20195;-77
2023/01/24 06:58:40;;;;;;;44.03;20.50;;;1.50;99.90;;;;;;5048904;28;20237;-75
2023/01/24 07:01:06;;;;;;;43.80;21.37;;;1.60;99.90;;;;;;5046696;28;20802;-76
2023/01/24 07:03:31;;;;;;;38.00;19.03;;;1.50;99.90;;;;;;5046623;28;20184;-76
2023/01/24 07:05:57;;;;;;;36.13;18.40;;;1.60;99.90;;;;;;5047001;28;20204;-77
2023/01/24 07:08:23;;;;;;;43.47;19.87;;;1.60;99.90;;;;;;5046808;28;20232;-76
2023/01/24 07:10:48;;;;;;;40.30;19.20;;;1.60;99.90;;;;;;5048635;28;20270;-77
2023/01/24 07:13:15;;;;;;;40.87;20.90;;;1.60;99.90;;;;;;5047308;28;20207;-76
2023/01/24 07:15:40;;;;;;;39.15;19.25;;;1.60;99.90;;;;;;5048385;28;20630;-77
2023/01/24 07:18:12;;;;;;;42.10;20.87;;;1.60;99.90;;;;;;5048472;28;20184;-76
2023/01/24 07:20:38;;;;;;;42.15;20.90;;;1.60;99.90;;;;;;5048410;28;20180;-77
2023/01/24 07:23:04;;;;;;;41.30;19.92;;;1.60;99.90;;;;;;5048962;28;20615;-77
2023/01/24 07:25:30;;;;;;;44.43;19.87;;;1.70;99.90;;;;;;5049554;28;20192;-77
2023/01/24 07:27:56;;;;;;;34.38;19.35;;;1.60;99.90;;;;;;5048040;28;20833;-77
2023/01/24 07:30:22;;;;;;;37.37;20.43;;;1.70;99.90;;;;;;5051657;28;20254;-77
2023/01/24 07:32:47;;;;;;;37.90;19.90;;;1.70;99.90;;;;;;5052774;28;20841;-77
2023/01/24 07:35:13;;;;;;;37.93;18.80;;;1.70;99.90;;;;;;5050691;28;20187;-75
2023/01/24 07:37:39;;;;;;;37.37;19.40;;;1.70;99.90;;;;;;5050291;28;20196;-77
2023/01/24 07:40:05;;;;;;;39.03;20.40;;;1.70;99.90;;;;;;5050554;28;20183;-76
2023/01/24 07:42:31;;;;;;;40.20;20.45;;;1.70;99.90;;;;;;5050257;28;20212;-76
2023/01/24 07:44:56;;;;;;;36.13;18.77;;;1.70;99.90;;;;;;5051872;28;20187;-77
2023/01/24 07:47:23;;;;;;;37.20;19.23;;;1.60;99.90;;;;;;5050487;28;20195;-77
2023/01/24 07:49:48;;;;;;;38.15;19.10;;;1.80;99.90;;;;;;5051904;28;20540;-76
2023/01/24 07:52:14;;;;;;;38.47;18.07;;;1.80;99.90;;;;;;5051539;28;20218;-76
2023/01/24 07:54:40;;;;;;;31.67;17.33;;;1.80;99.90;;;;;;5051472;28;20725;-76
2023/01/24 07:57:07;;;;;;;36.33;19.20;;;1.80;99.90;;;;;;5033449;28;20185;-75
2023/01/24 07:59:33;;;;;;;37.65;20.20;;;1.70;99.90;;;;;;5049838;28;20430;-77
2023/01/24 08:01:59;;;;;;;36.87;19.07;;;1.70;99.90;;;;;;5051570;28;20218;-76
2023/01/24 08:04:24;;;;;;;35.30;18.87;;;1.70;99.90;;;;;;5051270;28;20186;-76
2023/01/24 08:09:34;;;;;;;33.10;17.05;;;1.80;99.90;;;;;;5051398;28;20332;-76
2023/01/24 08:12:00;;;;;;;34.73;18.60;;;1.80;99.90;;;;;;5050655;28;20369;-75
2023/01/24 08:14:25;;;;;;;35.43;18.90;;;1.80;99.90;;;;;;5049975;28;20185;-77
2023/01/24 08:16:51;;;;;;;33.13;17.37;;;1.80;99.90;;;;;;5049901;28;20183;-76
2023/01/24 08:19:16;;;;;;;31.77;16.20;;;1.90;99.90;;;;;;5049662;28;20559;-77
2023/01/24 08:21:42;;;;;;;35.40;17.73;;;1.90;99.90;;;;;;5050942;28;20656;-76
2023/01/24 08:24:08;;;;;;;31.23;17.70;;;1.90;99.90;;;;;;5051106;28;20868;-76
2023/01/24 08:26:33;;;;;;;32.40;16.47;;;1.90;99.90;;;;;;5033135;28;20186;-76
2023/01/24 08:28:59;;;;;;;30.20;15.60;;;2.00;99.90;;;;;;5050956;28;20186;-76
2023/01/24 08:31:25;;;;;;;29.33;15.67;;;2.00;99.90;;;;;;5050835;28;20205;-76
2023/01/24 08:33:51;;;;;;;29.70;15.90;;;2.00;99.90;;;;;;5050544;28;20213;-76
2023/01/24 08:36:19;;;;;;;29.00;15.77;;;2.00;99.90;;;;;;5049898;28;20188;-76
2023/01/24 08:38:44;;;;;;;28.50;15.57;;;2.00;99.90;;;;;;5050926;28;20205;-77
2023/01/24 08:41:10;;;;;;;31.73;15.80;;;2.00;99.90;;;;;;5050467;28;20204;-76
2023/01/24 08:43:36;;;;;;;29.00;16.17;;;2.00;99.90;;;;;;5049323;28;20239;-76
2023/01/24 08:46:02;;;;;;;26.30;15.00;;;2.10;99.90;;;;;;5050956;28;20411;-76
2023/01/24 08:48:28;;;;;;;27.33;14.90;;;2.00;99.90;;;;;;5050884;28;20737;-76
2023/01/24 08:50:54;;;;;;;29.05;16.63;;;2.00;99.90;;;;;;5050524;28;20289;-76
2023/01/24 08:53:19;;;;;;;32.70;15.60;;;2.00;99.90;;;;;;5049135;28;20238;-76
2023/01/24 08:55:51;;;;;;;31.57;17.23;;;2.00;99.90;;;;;;5048951;28;20189;-76
2023/01/24 08:58:17;;;;;;;32.72;16.17;;;2.00;99.90;;;;;;5049998;28;20196;-75
2023/01/24 09:00:42;;;;;;;26.23;14.80;;;2.00;99.90;;;;;;5048897;28;20207;-76
2023/01/24 09:03:11;;;;;;;21.93;14.40;;;2.10;99.90;;;;;;5050142;28;20190;-77
2023/01/24 09:05:38;;;;;;;23.63;14.30;;;2.10;99.90;;;;;;5050018;28;20197;-75
2023/01/24 09:08:04;;;;;;;27.75;13.90;;;2.10;99.90;;;;;;5032273;28;20202;-76
2023/01/24 09:10:30;;;;;;;30.45;14.80;;;2.10;99.90;;;;;;5048080;28;20188;-76
2023/01/24 09:12:56;;;;;;;31.73;14.63;;;2.10;99.90;;;;;;5049613;28;20232;-76
2023/01/24 09:15:21;;;;;;;27.60;14.73;;;2.10;99.90;;;;;;5049577;28;20266;-76
2023/01/24 09:17:47;;;;;;;27.90;16.20;;;2.20;99.90;;;;;;5048450;28;20263;-76
2023/01/24 09:20:13;;;;;;;24.50;13.80;;;2.20;99.90;;;;;;5048774;28;20645;-77
2023/01/24 09:22:39;;;;;;;30.37;16.37;;;2.10;99.90;;;;;;5031609;28;20607;-77
2023/01/24 09:25:07;;;;;;;28.27;15.57;;;2.20;99.90;;;;;;5048299;28;20183;-76
2023/01/24 09:27:33;;;;;;;29.00;15.02;;;2.10;99.90;;;;;;5048102;28;20196;-76
2023/01/24 09:29:59;;;;;;;27.93;15.17;;;2.20;99.90;;;;;;5049490;28;20190;-77
2023/01/24 09:32:24;;;;;;;25.27;13.77;;;2.20;99.90;;;;;;5049125;28;20938;-76
2023/01/24 09:34:50;;;;;;;27.40;15.70;;;2.20;99.90;;;;;;5049552;28;20176;-76
2023/01/24 09:37:20;;;;;;;27.23;15.27;;;2.20;99.90;;;;;;5048017;28;20237;-77
2023/01/24 09:39:46;;;;;;;27.70;14.10;;;2.20;99.90;;;;;;5049299;28;20183;-76
2023/01/24 09:42:23;;;;;;;28.93;15.83;;;2.20;99.90;;;;;;5049424;28;20275;-75
2023/01/24 09:44:57;;;;;;;31.73;16.83;;;2.20;99.90;;;;;;5049798;28;20186;-76
2023/01/24 09:47:44;;;;;;;27.50;15.65;;;2.30;99.90;;;;;;5050110;28;20179;-76
2023/01/24 09:50:25;;;;;;;26.52;14.38;;;2.30;99.90;;;;;;5049740;28;20192;-76
2023/01/24 09:52:56;;;;;;;92.13;36.45;;;2.30;99.90;;;;;;5049389;28;20217;-77
2023/01/24 09:55:40;;;;;;;40.03;18.27;;;2.30;99.90;;;;;;5048181;28;20185;-76
2023/01/24 09:58:39;;;;;;;24.95;13.35;;;2.50;99.90;;;;;;5049597;28;20184;-76
2023/01/24 10:01:11;;;;;;;25.08;14.38;;;2.40;99.90;;;;;;5048997;28;20212;-77
2023/01/24 10:03:38;;;;;;;26.20;14.77;;;2.40;99.90;;;;;;5047617;28;20200;-76
2023/01/24 10:06:21;;;;;;;23.75;14.80;;;2.40;99.90;;;;;;5048837;28;20179;-77
2023/01/24 10:09:21;;;;;;;24.70;14.98;;;2.40;99.90;;;;;;5048712;28;20243;-76
2023/01/24 10:12:13;;;;;;;26.23;15.63;;;2.40;99.90;;;;;;5028661;28;20331;-76
2023/01/24 10:15:09;;;;;;;25.98;14.23;;;2.40;99.90;;;;;;5025069;28;20201;-76
2023/01/24 10:18:18;;;;;;;24.27;14.27;;;2.40;99.90;;;;;;5048662;28;20184;-77
2023/01/24 10:20:49;;;;;;;27.58;14.65;;;2.30;99.90;;;;;;5048687;28;20178;-77
2023/01/24 10:23:26;;;;;;;25.88;15.30;;;2.40;99.90;;;;;;5048849;28;20180;-76
2023/01/24 10:26:17;;;;;;;24.75;14.38;;;2.40;99.90;;;;;;5048824;28;20177;-76
2023/01/24 10:28:50;;;;;;;25.85;14.60;;;2.50;99.90;;;;;;5048370;28;20192;-76
2023/01/24 10:31:33;;;;;;;24.83;13.30;;;2.60;99.90;;;;;;5048802;28;20192;-76
2023/01/24 10:34:10;;;;;;;28.08;13.70;;;2.60;99.90;;;;;;5048498;28;20800;-77
2023/01/24 10:36:59;;;;;;;30.50;15.35;;;2.60;99.90;;;;;;5048524;28;20288;-77
2023/01/24 10:39:27;;;;;;;21.30;13.35;;;2.70;99.90;;;;;;5047019;28;20634;-76
2023/01/24 10:41:53;;;;;;;22.58;14.13;;;2.70;99.90;;;;;;5048408;28;20197;-76
2023/01/24 10:44:27;;;;;;;23.90;12.73;;;2.80;99.90;;;;;;5048546;28;20187;-77
2023/01/24 10:47:18;;;;;;;31.88;14.80;;;2.80;99.90;;;;;;5048682;28;20187;-77
2023/01/24 10:50:00;;;;;;;27.27;13.88;;;2.80;99.90;;;;;;5048316;28;20227;-77
2023/01/24 10:52:26;;;;;;;21.75;14.20;;;2.80;99.90;;;;;;5046422;28;20301;-75
2023/01/24 10:54:55;;;;;;;22.80;13.27;;;2.80;99.90;;;;;;5047934;28;20231;-76
2023/01/24 10:57:52;;;;;;;23.40;13.02;;;2.80;99.90;;;;;;5046556;28;20426;-76
2023/01/24 11:00:22;;;;;;;23.77;13.35;;;2.70;99.90;;;;;;5039716;28;20588;-76
2023/01/24 11:02:54;;;;;;;23.70;13.65;;;2.70;99.90;;;;;;5047368;28;20197;-76
2023/01/24 11:05:20;;;;;;;27.58;14.98;;;2.70;99.90;;;;;;5048254;28;20200;-76
2023/01/24 11:07:58;;;;;;;29.60;13.18;;;2.70;99.90;;;;;;5048281;28;20306;-77
2023/01/24 11:10:31;;;;;;;22.33;13.73;;;2.70;99.90;;;;;;5050498;28;20264;-76
2023/01/24 11:12:59;;;;;;;27.67;15.82;;;2.70;99.90;;;;;;5048120;28;20200;-76
2023/01/24 11:15:35;;;;;;;21.15;13.15;;;2.80;99.90;;;;;;5047698;28;20606;-77
2023/01/24 11:18:20;;;;;;;22.95;13.50;;;2.80;99.90;;;;;;5046407;28;20177;-76
2023/01/24 11:20:46;;;;;;;21.88;12.90;;;2.80;99.90;;;;;;5047550;28;20181;-75
2023/01/24 11:23:17;;;;;;;23.42;13.60;;;2.90;99.90;;;;;;5047957;28;20234;-76
2023/01/24 11:26:02;;;;;;;23.00;13.38;;;2.90;99.90;;;;;;5048176;28;20191;-77
2023/01/24 11:28:33;;;;;;;24.35;12.80;;;2.90;99.90;;;;;;5047882;28;20208;-76
2023/01/24 11:31:03;;;;;;;21.85;12.93;;;3.00;99.90;;;;;;5047908;28;20206;-76
2023/01/24 11:33:37;;;;;;;20.77;13.10;;;3.00;99.90;;;;;;5046202;28;20273;-76
2023/01/24 11:36:21;;;;;;;23.30;12.00;;;3.10;99.90;;;;;;5047863;28;20181;-76
2023/01/24 11:38:48;;;;;;;20.23;11.82;;;3.10;99.90;;;;;;5047945;28;20192;-76
2023/01/24 11:41:39;;;;;;;19.13;12.32;;;3.10;99.90;;;;;;5046548;28;20199;-74
2023/01/24 11:44:35;;;;;;;19.90;12.30;;;3.10;99.90;;;;;;5048127;28;20188;-76
2023/01/24 11:47:10;;;;;;;20.10;11.60;;;3.10;99.90;;;;;;5047833;28;20658;-76
2023/01/24 11:50:03;;;;;;;18.05;12.13;;;3.10;99.90;;;;;;5048923;28;20226;-77
2023/01/24 11:52:56;;;;;;;25.73;12.85;;;3.10;99.90;;;;;;5048021;28;20276;-76
2023/01/24 11:55:25;;;;;;;21.90;11.82;;;3.10;99.90;;;;;;5048008;28;20188;-76
2023/01/24 11:58:20;;;;;;;16.90;11.38;;;3.10;99.90;;;;;;5047704;28;20521;-76
2023/01/24 12:00:55;;;;;;;17.52;11.77;;;3.10;99.90;;;;;;5048042;28;20615;-75
2023/01/24 12:04:09;;;;;;;18.02;11.95;;;3.20;99.90;;;;;;5047997;28;20233;-76
2023/01/24 12:06:44;;;;;;;21.73;12.02;;;3.10;99.90;;;;;;4978107;28;20185;-75
2023/01/24 12:10:05;;;;;;;23.17;11.50;;;3.10;99.90;;;;;;5047752;28;20219;-76
2023/01/24 12:13:15;;;;;;;23.38;13.73;;;3.10;99.90;;;;;;5041542;28;20723;-76
2023/01/24 12:16:03;;;;;;;21.45;12.35;;;3.10;99.90;;;;;;4988828;28;20198;-76
2023/01/24 12:19:06;;;;;;;19.05;11.80;;;3.20;99.90;;;;;;5013548;28;20191;-77
2023/01/24 12:21:32;;;;;;;15.85;10.68;;;3.20;99.90;;;;;;5051080;28;20234;-75
2023/01/24 12:24:07;;;;;;;18.27;11.30;;;3.20;99.90;;;;;;5049950;28;20940;-75
2023/01/24 12:26:40;;;;;;;17.70;11.80;;;3.20;99.90;;;;;;5051094;28;20434;-76
2023/01/24 12:29:28;;;;;;;20.13;12.00;;;3.20;99.90;;;;;;5051176;28;20188;-76
2023/01/24 12:32:19;;;;;;;20.92;11.18;;;3.20;99.90;;;;;;5051132;28;20216;-76
2023/01/24 12:34:54;;;;;;;16.83;11.48;;;3.20;99.90;;;;;;5050773;28;20222;-76
2023/01/24 12:37:27;;;;;;;21.60;12.15;;;3.20;99.90;;;;;;5050902;28;20274;-77
2023/01/24 12:40:07;;;;;;;18.17;11.70;;;3.20;99.90;;;;;;5049455;28;20658;-77
2023/01/24 12:42:49;;;;;;;21.33;13.32;;;3.20;99.90;;;;;;5050890;28;20200;-75
2023/01/24 12:45:38;;;;;;;25.25;12.45;;;3.20;99.90;;;;;;5051071;28;20180;-76
2023/01/24 12:48:36;;;;;;;23.02;13.68;;;3.30;99.90;;;;;;5019827;28;20213;-76
2023/01/24 12:51:42;;;;;;;22.27;13.00;;;3.30;99.90;;;;;;5050627;28;20198;-77
2023/01/24 12:54:30;;;;;;;24.40;12.77;;;3.30;99.90;;;;;;5029469;28;20560;-75
2023/01/24 12:57:11;;;;;;;23.27;12.82;;;3.30;99.90;;;;;;5051176;28;20268;-77
2023/01/24 12:59:37;;;;;;;17.98;11.75;;;3.30;99.90;;;;;;5050764;28;20200;-77
2023/01/24 13:02:21;;;;;;;23.03;12.13;;;3.30;99.90;;;;;;5049379;28;20216;-76
2023/01/24 13:05:02;;;;;;;20.38;11.13;;;3.40;99.90;;;;;;5050872;28;20176;-75
2023/01/24 13:07:54;;;;;;;18.10;11.70;;;3.40;99.90;;;;;;5049386;28;20184;-77
2023/01/24 13:10:42;;;;;;;21.20;11.50;;;3.40;99.90;;;;;;5012310;28;20702;-76
2023/01/24 13:13:19;;;;;;;16.90;11.00;;;3.50;99.90;;;;;;5051082;28;20201;-77
2023/01/24 13:16:21;;;;;;;19.65;11.23;;;3.40;99.90;;;;;;5051930;28;20178;-77
2023/01/24 13:18:55;;;;;;;19.30;11.48;;;3.40;99.90;;;;;;5051234;28;20177;-77
2023/01/24 13:21:40;;;;;;;20.42;11.45;;;3.40;99.90;;;;;;5051304;28;20230;-77
2023/01/24 13:24:36;;;;;;;19.17;11.25;;;3.30;99.90;;;;;;5050405;28;20263;-77
2023/01/24 13:27:25;;;;;;;20.60;12.25;;;3.40;99.90;;;;;;5050516;28;20209;-77
2023/01/24 13:30:18;;;;;;;17.75;11.60;;;3.30;99.90;;;;;;5050861;28;20173;-77
2023/01/24 13:32:44;;;;;;;27.42;14.50;;;3.30;99.90;;;;;;5050420;28;20288;-76
2023/01/24 13:35:17;;;;;;;24.67;12.38;;;3.30;99.90;;;;;;5049250;28;20186;-76
2023/01/24 13:37:53;;;;;;;24.80;14.52;;;3.30;99.90;;;;;;5050617;28;20646;-77
2023/01/24 13:40:30;;;;;;;20.13;11.50;;;3.30;99.90;;;;;;5050729;28;20768;-76